Terminal Aerodrome Forecast
Issued by NWS

Home | Current Version | Previous Version | Text Only | Print | Product List | Glossary Off
Versions: 1 2 3 4 5 6 7 8 9 10 11 12 13 14

000
FTUS42 KMHX 021134
TAFOAJ
TAF
KOAJ 021134Z 0212/0312 35008KT P6SM FEW045 SCT100
      TEMPO 0219/0223 BKN045
     FM030000 00000KT P6SM SKC
      AMD LTD TO CLD VIS AND WIND=

USA.gov is the U.S. government's official web portal to all federal, state and local government web resources and services.